Terminal Aerodrome Forecast
Issued by NWS Rapid City, SD

Home | Current Version | Previous Version | Text Only | Print | Product List | Glossary Off
Versions: 1 2 3 4 5 6 7 8 9 10 11 12 13 14 15 16

000
FTUS43 KUNR 181300 AAA
TAFRAP
TAF AMD
KRAP 181302Z 1813/1912 16005KT 3SM BR OVC003
      TEMPO 1813/1815 3/4SM BR OVC002
     FM181600 15008KT P6SM BKN006
     FM181800 19005KT P6SM SCT100=

USA.gov is the U.S. government's official web portal to all federal, state and local government web resources and services.